MKJP METAR and TAF | Updated Today

MKJP METAR

Norman Manley International Airport

Observation time: 38 min. ago

MKJP 251900Z 15023KT 9999 FEW022CB 29/23 Q1012

Need help? Read our tutorial on how to read METARs or read the parsed version below.

Norman Manley International Airport (MKJP) METAR

  • Weather conditions on Wed, 25 May 2022 19:00:00 +0000 (38 min. ago):
  • Present conditions: Dry
  • Clouds: A few at 671 meters, cumulonimbus
  • Visibility: Greater than 10 km
  • Wind: 150 degrees at 23 knots
  • Temperature: 29 celsius
  • Dew point: 23 celsius
  • Pressure: 1012 millibars
  • Remarks: None


Useful to know...

MKJP TAF

Norman Manley International Airport

TAF MKJP 251715Z 2518/2618 13022KT 9999 FEW022 BECMG 2606/2608 34006KT BECMG 2614/2616 13023KT
Observation time: 2:23 hr. ago
Need help? Read our tutorial on how to read TAFs or read the parsed version below.

Parsed version of TAF for Norman Manley International Airport (MKJP)

  • From 25 May at 18:00 UTC, to day 26 of the month at 18:00 UTC
  • Clouds: A few at 671 meters
  • Visibility: Greater than 10 km
  • Wind: 130 degrees at 22
  • Expected to arise soon, from 26 May at 06:00 UTC, to day 26 of the month at 08:00 UTC
  • Wind: 340 degrees at 6
  • Expected to arise soon, from 26 May at 14:00 UTC, to day 26 of the month at 16:00 UTC
  • Wind: 130 degrees at 23

Airports near MKJP

No airports found within 100nm radius.